Independent — WDJ441 — position and weather

sailwx.info

Track history (hours):
 
Tides and Currents Weather Stations Pressure Air Temp Water Temp Dewpoint Dewpoint Depression Visibility Wind Speed Wind Dir Waves Ship Positions

Independent

Last reported at 2018-May-15 14:20 UTC. Time now 2018-Jun-21 16:23 UTC.
Position N 27°57' W 082°27'.
Warning: this ship's position is 37 days out of date.

Length 28 m; draft 5 m.

Type: Tug. MMSI: 367777460.

Date/timePositionNaut miles runAvg speedWind from/ knotsBaromVisibWave heightAir tempDewpointWater temp
2018-May-15 14:20N 27°57' W 082°27'0 0.0
2018-May-15 14:00N 27°57' W 082°27'0 0.0
2018-May-15 13:30N 27°57' W 082°27'0 0.0
2018-May-15 13:00N 27°57' W 082°27'1 2.9
2018-May-15 12:31N 27°55' W 082°27'1 1.0
2018-May-15 12:00N 27°55' W 082°27'0 0.0
2018-May-15 11:30N 27°55' W 082°27'2 3.2
2018-May-15 11:01N 27°57' W 082°27'0 0.6
2018-May-15 10:30N 27°57' W 082°27'1 2.0
2018-May-15 10:01N 27°56' W 082°26'0 0.1
2018-May-15 09:30N 27°56' W 082°26'0 0.0
2018-May-15 09:00N 27°56' W 082°26'0 0.0
2018-May-15 08:30N 27°56' W 082°26'0 0.0
2018-May-15 08:00N 27°56' W 082°26'0 0.0
2018-May-15 07:30N 27°56' W 082°26'0 0.0
2018-May-15 07:00N 27°56' W 082°26'0 0.0
2018-May-15 06:30N 27°56' W 082°26'0 0.0
2018-May-15 06:00N 27°56' W 082°26'0 0.0
2018-May-15 05:30N 27°56' W 082°26'0 0.0
2018-May-15 05:00N 27°56' W 082°26'0 0.0
2018-May-15 04:30N 27°56' W 082°26'0 0.0
2018-May-15 04:00N 27°56' W 082°26'0 0.0
2018-May-15 03:30N 27°56' W 082°26'0 0.0
2018-May-15 03:00N 27°56' W 082°26'0 0.0
2018-May-15 02:31N 27°56' W 082°26'2 3.7
2018-May-15 02:00N 27°54' W 082°25'0 0.1
2018-May-15 01:30N 27°54' W 082°25'1 1.2
2018-May-15 01:00N 27°54' W 082°26'1 2.7
2018-May-15 00:31N 27°53' W 082°27'510.9
2018-May-15 00:01N 27°48' W 082°29'611.2
2018-May-14 23:30N 27°43' W 082°32'5 8.0
2018-May-14 22:51N 27°38' W 082°34'0 1.3
2018-May-14 22:30N 27°38' W 082°34'0 0.0
2018-May-14 22:00N 27°38' W 082°34'0 0.8
2018-May-14 21:29N 27°38' W 082°34'3 6.9
2018-May-14 21:00N 27°41' W 082°34'510.6
2018-May-14 20:30N 27°46' W 082°31'5 9.7
2018-May-14 20:01N 27°49' W 082°27'510.3
2018-May-14 19:30N 27°54' W 082°26'2 4.0
2018-May-14 19:00N 27°56' W 082°26'0 0.0
2018-May-14 18:30N 27°56' W 082°26'0 0.0
2018-May-14 18:00N 27°56' W 082°26'0 0.0
2018-May-14 17:30N 27°56' W 082°26'0 0.0
2018-May-14 17:00N 27°56' W 082°26'2 3.3
2018-May-14 16:30N 27°54' W 082°26'1 2.0
2018-May-14 16:00N 27°55' W 082°27'0 0.0
2018-May-14 15:30N 27°55' W 082°27'1 1.3
2018-May-14 15:00N 27°55' W 082°26'2 2.6
2018-May-14 14:25N 27°56' W 082°26'0 0.0
2018-May-14 13:59N 27°56' W 082°26'0 0.0
2018-May-14 13:30N 27°56' W 082°26'0 0.0
2018-May-14 13:00N 27°56' W 082°26'0 0.0
2018-May-14 12:30N 27°56' W 082°26'0 0.0
2018-May-14 12:00N 27°56' W 082°26'0 0.0
2018-May-14 11:30N 27°56' W 082°26'0 0.0
2018-May-14 11:00N 27°56' W 082°26'0 0.0
2018-May-14 10:30N 27°56' W 082°26'0 0.0
2018-May-14 10:00N 27°56' W 082°26'0 0.0
2018-May-14 09:30N 27°56' W 082°26'0 0.0
2018-May-14 09:00N 27°56' W 082°26'0 0.0
2018-May-14 08:30N 27°56' W 082°26'0 0.0
2018-May-14 08:00N 27°56' W 082°26'0 0.0
2018-May-14 07:30N 27°56' W 082°26'0 0.0
2018-May-14 07:00N 27°56' W 082°26'0 0.0
2018-May-14 06:30N 27°56' W 082°26'0 0.0
2018-May-14 06:00N 27°56' W 082°26'0 0.0
2018-May-14 05:30N 27°56' W 082°26'2 3.3
2018-May-14 05:00N 27°54' W 082°26'2 4.7
2018-May-14 04:30N 27°57' W 082°27'0 0.9
2018-May-14 04:00N 27°56' W 082°27'2 4.1
2018-May-14 03:30N 27°54' W 082°26'1 2.6
2018-May-14 03:01N 27°53' W 082°27'2 3.0
2018-May-14 02:30N 27°55' W 082°26'0 0.0
2018-May-14 02:00N 27°55' W 082°26'0 0.0
2018-May-14 01:30N 27°55' W 082°26'0 0.0
2018-May-14 01:00N 27°55' W 082°26'1 2.1
2018-May-14 00:30N 27°55' W 082°27'1 2.7
2018-May-14 00:00N 27°57' W 082°27'4 7.3
2018-May-13 23:31N 27°53' W 082°26'510.8
2018-May-13 23:00N 27°48' W 082°28'510.4
2018-May-13 22:30N 27°44' W 082°32'6 7.7
2018-May-13 21:43N 27°38' W 082°34'0 0.4
2018-May-13 21:10N 27°38' W 082°34'1 3.7
2018-May-13 20:54N 27°39' W 082°35'2 4.7
2018-May-13 20:28N 27°39' W 082°37'1 1.7
2018-May-13 19:40N 27°40' W 082°36'212.8
2018-May-13 19:30N 27°41' W 082°34'612.2
2018-May-13 19:01N 27°47' W 082°31'4 8.8
2018-May-13 18:30N 27°51' W 082°34'1 2.6
2018-May-13 18:01N 27°52' W 082°33'0 0.1
2018-May-13 17:31N 27°52' W 082°33'4 8.7
2018-May-13 17:00N 27°47' W 082°34'5 9.8
2018-May-13 16:30N 27°48' W 082°29'4 8.9
2018-May-13 16:00N 27°52' W 082°27'4 8.0
2018-May-13 15:30N 27°56' W 082°26'0 0.0
2018-May-13 15:00N 27°56' W 082°26'0 0.0
2018-May-13 14:30N 27°56' W 082°26'0 0.0
2018-May-13 14:00N 27°56' W 082°26'0 0.0
2018-May-13 13:30N 27°56' W 082°26'0 0.0
2018-May-13 13:00N 27°56' W 082°26'0 0.0
2018-May-13 12:30N 27°56' W 082°26'0 0.0
2018-May-13 12:00N 27°56' W 082°26'0 0.0
2018-May-13 11:30N 27°56' W 082°26'0 0.0
2018-May-13 11:00N 27°56' W 082°26'0 0.0
2018-May-13 10:30N 27°56' W 082°26'0 0.0
2018-May-13 10:00N 27°56' W 082°26'0 0.0
2018-May-13 09:30N 27°56' W 082°26'0 0.0
2018-May-13 09:00N 27°56' W 082°26'0 0.0
2018-May-13 08:30N 27°56' W 082°26'0 0.0
2018-May-13 08:00N 27°56' W 082°26'0 0.0
2018-May-13 07:30N 27°56' W 082°26'0 0.0
2018-May-13 07:00N 27°56' W 082°26'1 2.5
2018-May-13 06:30N 27°55' W 082°27'0 0.2
2018-May-13 06:00N 27°55' W 082°27'0 0.0
2018-May-13 05:31N 27°55' W 082°27'2 3.1
2018-May-13 05:00N 27°53' W 082°26'1 2.1
2018-May-13 04:28N 27°55' W 082°26'0 0.0
2018-May-13 04:00N 27°55' W 082°26'0 0.0
2018-May-13 03:30N 27°55' W 082°26'0 0.0
2018-May-13 03:00N 27°55' W 082°26'0 0.9
2018-May-13 02:30N 27°54' W 082°26'510.2
2018-May-13 02:01N 27°49' W 082°27'5 9.8
2018-May-13 01:31N 27°47' W 082°32'4 7.1
2018-May-13 01:00N 27°50' W 082°34'2 3.3
2018-May-13 00:30N 27°52' W 082°33'0 0.0
2018-May-13 00:00N 27°52' W 082°33'0 0.0
2018-May-12 23:30N 27°52' W 082°33'0 0.0
2018-May-12 23:00N 27°52' W 082°33'0 0.0
2018-May-12 22:30N 27°52' W 082°33'0 0.0
2018-May-12 22:00N 27°52' W 082°33'0 0.0
2018-May-12 21:30N 27°52' W 082°33'0 0.0
2018-May-12 21:00N 27°52' W 082°33'0 0.0
2018-May-12 20:30N 27°52' W 082°33'0 0.0
2018-May-12 20:00N 27°52' W 082°33'0 0.0
2018-May-12 19:30N 27°52' W 082°33'0 0.0
2018-May-12 19:00N 27°52' W 082°33'0 0.3
2018-May-12 18:30N 27°52' W 082°33'0 0.8
2018-May-12 18:00N 27°51' W 082°33'3 5.6
2018-May-12 17:30N 27°49' W 082°34'4 8.7
2018-May-12 17:01N 27°48' W 082°30'510.5
2018-May-12 16:30N 27°52' W 082°27'3 5.8
2018-May-12 16:00N 27°55' W 082°27'0 0.1
2018-May-12 15:30N 27°55' W 082°27'0 0.0
2018-May-12 15:00N 27°55' W 082°27'1 2.4
2018-May-12 14:30N 27°56' W 082°26'0 0.1
2018-May-12 13:59N 27°56' W 082°26'0 0.0
2018-May-12 13:30N 27°56' W 082°26'0 0.0
2018-May-12 12:59N 27°56' W 082°26'0 0.0
2018-May-12 12:30N 27°56' W 082°26'0 0.0
2018-May-12 12:00N 27°56' W 082°26'0 0.0
2018-May-12 11:30N 27°56' W 082°26'0 0.0
2018-May-12 11:00N 27°56' W 082°26'0 0.0
2018-May-12 10:30N 27°56' W 082°26'0 0.0
2018-May-12 10:00N 27°56' W 082°26'0 0.0
2018-May-12 09:30N 27°56' W 082°26'0 0.0
2018-May-12 09:00N 27°56' W 082°26'0 0.0
2018-May-12 08:28N 27°56' W 082°26'0 0.0
2018-May-12 08:00N 27°56' W 082°26'0 0.0
2018-May-12 07:30N 27°56' W 082°26'0 0.0
2018-May-12 07:00N 27°56' W 082°26'0 0.0
2018-May-12 06:30N 27°56' W 082°26'0 0.0
2018-May-12 05:59N 27°56' W 082°26'0 0.0
2018-May-12 05:30N 27°56' W 082°26'0 0.0
2018-May-12 05:00N 27°56' W 082°26'0 0.0
2018-May-12 04:28N 27°56' W 082°26'0 0.0
2018-May-12 04:00N 27°56' W 082°26'0 0.0
2018-May-12 03:30N 27°56' W 082°26'0 0.0
2018-May-12 03:00N 27°56' W 082°26'0 0.0
2018-May-12 02:30N 27°56' W 082°26'0 0.0
2018-May-12 02:00N 27°56' W 082°26'0 0.0
2018-May-12 01:29N 27°56' W 082°26'0 0.0
2018-May-12 01:00N 27°56' W 082°26'0 0.0
2018-May-12 00:30N 27°56' W 082°26'0 0.0
2018-May-12 00:00N 27°56' W 082°26'0 0.0
2018-May-11 23:30N 27°56' W 082°26'0 0.0
2018-May-11 22:59N 27°56' W 082°26'0 0.0
2018-May-11 22:30N 27°56' W 082°26'0 0.0
2018-May-11 22:00N 27°56' W 082°26'0 0.0
2018-May-11 21:30N 27°56' W 082°26'1 2.6
2018-May-11 21:01N 27°55' W 082°26'0 0.9
2018-May-11 20:30N 27°54' W 082°26'1 1.7
2018-May-11 20:00N 27°54' W 082°26'0 0.8
2018-May-11 19:30N 27°54' W 082°26'0 0.8
2018-May-11 19:00N 27°55' W 082°26'1 1.7
2018-May-11 18:31N 27°54' W 082°26'0 0.3
2018-May-11 18:00N 27°54' W 082°26'2 4.2
2018-May-11 17:29N 27°56' W 082°26'0 0.0
2018-May-11 16:58N 27°56' W 082°26'0 0.0
2018-May-11 16:30N 27°56' W 082°26'0 0.0
2018-May-11 16:00N 27°56' W 082°26'0 0.0
2018-May-11 15:30N 27°56' W 082°26'0 0.0
2018-May-11 15:00N 27°56' W 082°26'0 0.0
2018-May-11 14:29N 27°56' W 082°26'0 0.0
2018-May-11 14:00N 27°56' W 082°26'0 0.0
2018-May-11 13:30N 27°56' W 082°26'1 2.3
2018-May-11 13:00N 27°55' W 082°26'1 1.6
2018-May-11 12:30N 27°55' W 082°27'1 2.9
2018-May-11 12:01N 27°54' W 082°26'1 2.0
2018-May-11 11:30N 27°55' W 082°26'0 0.0
2018-May-11 11:00N 27°55' W 082°26'0 0.0
2018-May-11 10:30N 27°55' W 082°26'0 0.0
2018-May-11 10:00N 27°55' W 082°26'0 0.0
2018-May-11 09:30N 27°55' W 082°26'0 0.0
2018-May-11 09:00N 27°55' W 082°26'0 0.0
2018-May-11 08:30N 27°55' W 082°26'0 0.0
2018-May-11 08:00N 27°55' W 082°26'1 1.2
2018-May-11 07:30N 27°55' W 082°27'0 0.4
2018-May-11 07:01N 27°55' W 082°27'2 3.7
2018-May-11 06:30N 27°53' W 082°26'0 0.0
2018-May-11 06:00N 27°53' W 082°26'3 6.0
2018-May-11 05:30N 27°56' W 082°26'0 0.0
2018-May-11 04:58N 27°56' W 082°26'0 0.0
2018-May-11 04:30N 27°56' W 082°26'0 0.0
2018-May-11 04:00N 27°56' W 082°26'0 0.0
2018-May-11 03:30N 27°56' W 082°26'0 0.0
2018-May-11 02:59N 27°56' W 082°26'0 0.0
2018-May-11 02:30N 27°56' W 082°26'0 0.0
2018-May-11 02:00N 27°56' W 082°26'0 0.0
2018-May-11 01:30N 27°56' W 082°26'0 0.0
2018-May-11 01:00N 27°56' W 082°26'0 0.0
2018-May-11 00:30N 27°56' W 082°26'0 0.0
2018-May-11 00:00N 27°56' W 082°26'0 0.0
2018-May-10 23:30N 27°56' W 082°26'0 0.0
2018-May-10 23:00N 27°56' W 082°26'0 0.0
2018-May-10 22:30N 27°56' W 082°26'0 0.0
2018-May-10 22:00N 27°56' W 082°26'0 0.0
2018-May-10 21:30N 27°56' W 082°26'0 0.0
2018-May-10 20:59N 27°56' W 082°26'0 0.0
2018-May-10 20:30N 27°56' W 082°26'0 0.0
2018-May-10 20:00N 27°56' W 082°26'0 0.0
2018-May-10 19:30N 27°56' W 082°26'0 0.0
2018-May-10 19:00N 27°56' W 082°26'0 0.0
2018-May-10 18:30N 27°56' W 082°26'0 0.0
2018-May-10 18:00N 27°56' W 082°26'0 0.0
2018-May-10 17:30N 27°56' W 082°26'0 0.0
2018-May-10 17:00N 27°56' W 082°26'0 0.0
2018-May-10 16:29N 27°56' W 082°26'0 0.0
2018-May-10 16:00N 27°56' W 082°26'0 0.0
2018-May-10 15:30N 27°56' W 082°26'0 0.0
2018-May-10 15:00N 27°56' W 082°26'0 0.0
2018-May-10 14:30N 27°56' W 082°26'0 0.0
2018-May-10 14:00N 27°56' W 082°26'0 0.0
2018-May-10 13:30N 27°56' W 082°26'0 0.0
2018-May-10 13:00N 27°56' W 082°26'0 0.0
2018-May-10 12:29N 27°56' W 082°26'0 0.0
2018-May-10 12:00N 27°56' W 082°26'0 0.0
2018-May-10 11:30N 27°56' W 082°26'0 0.0
2018-May-10 11:00N 27°56' W 082°26'0 0.0
2018-May-10 10:30N 27°56' W 082°26'0 0.0
2018-May-10 10:00N 27°56' W 082°26'0 0.0
2018-May-10 09:30N 27°56' W 082°26'0 0.0
2018-May-10 09:00N 27°56' W 082°26'0 0.0
2018-May-10 08:29N 27°56' W 082°26'0 0.0
2018-May-10 07:59N 27°56' W 082°26'0 0.0
2018-May-10 07:30N 27°56' W 082°26'0 0.0
2018-May-10 07:00N 27°56' W 082°26'1 2.2
2018-May-10 06:30N 27°55' W 082°25'0 0.3
2018-May-10 06:01N 27°55' W 082°25'0 0.7
2018-May-10 05:31N 27°55' W 082°26'2 3.7
2018-May-10 05:01N 27°53' W 082°26'0 1.0
2018-May-10 04:31N 27°53' W 082°26'1 2.9
2018-May-10 04:00N 27°55' W 082°26'0 0.0
2018-May-10 03:31N 27°55' W 082°26'2 3.8
2018-May-10 03:00N 27°56' W 082°27'1 1.4
2018-May-10 02:31N 27°57' W 082°27'0 0.3
2018-May-10 02:00N 27°57' W 082°27'0 0.0
2018-May-10 01:30N 27°57' W 082°27'0 0.0
2018-May-10 01:00N 27°57' W 082°27'0 0.0
2018-May-10 00:30N 27°57' W 082°27'0 0.0
2018-May-10 00:00N 27°57' W 082°27'0 0.0
2018-May-09 23:30N 27°57' W 082°27'1 2.1
2018-May-09 23:00N 27°56' W 082°27'0 0.1
2018-May-09 22:30N 27°56' W 082°27'1 1.6
2018-May-09 22:00N 27°55' W 082°27'0 0.1
2018-May-09 21:31N 27°55' W 082°27'1 1.3
2018-May-09 21:00N 27°55' W 082°26'0 0.0
2018-May-09 20:30N 27°55' W 082°26'0 0.0
2018-May-09 20:00N 27°55' W 082°26'0 0.0
2018-May-09 19:30N 27°55' W 082°26'0 0.0
2018-May-09 18:59N 27°55' W 082°26'1 2.3
2018-May-09 18:31N 27°53' W 082°26'5 9.4
2018-May-09 18:00N 27°49' W 082°27'4 9.0
2018-May-09 17:30N 27°46' W 082°31'5 9.5
2018-May-09 17:01N 27°42' W 082°33'4 5.9
2018-May-09 16:21N 27°38' W 082°34'0 0.1
2018-May-09 15:41N 27°38' W 082°34'0 0.8
2018-May-09 15:27N 27°38' W 082°34'3 4.6
2018-May-09 14:49N 27°39' W 082°37'2 1.2
2018-May-09 13:30N 27°40' W 082°36'4 9.1
2018-May-09 13:01N 27°43' W 082°32'4 7.8
2018-May-09 12:30N 27°47' W 082°33'4 7.1
2018-May-09 12:01N 27°51' W 082°34'1 2.7
2018-May-09 11:30N 27°52' W 082°33'0 0.0
2018-May-09 11:00N 27°52' W 082°33'0 0.0
2018-May-09 10:30N 27°52' W 082°33'0 0.2
2018-May-09 10:00N 27°52' W 082°33'0 0.0
2018-May-09 09:30N 27°52' W 082°33'3 6.1
2018-May-09 09:00N 27°49' W 082°34'4 7.8
2018-May-09 08:30N 27°47' W 082°30'5 9.3
2018-May-09 08:01N 27°51' W 082°27'5 9.7
2018-May-09 07:31N 27°56' W 082°26'1 1.0
2018-May-09 07:00N 27°56' W 082°26'0 0.0
2018-May-09 06:30N 27°56' W 082°26'0 0.0
2018-May-09 06:00N 27°56' W 082°26'0 0.0
2018-May-09 05:30N 27°56' W 082°26'0 0.0
2018-May-09 05:00N 27°56' W 082°26'0 0.0
2018-May-09 04:29N 27°56' W 082°26'0 0.0
2018-May-09 04:00N 27°56' W 082°26'0 0.0
2018-May-09 03:30N 27°56' W 082°26'0 0.0
2018-May-09 03:00N 27°56' W 082°26'0 0.0
2018-May-09 02:30N 27°56' W 082°26'1 1.2
2018-May-09 02:00N 27°56' W 082°26'1 1.7
2018-May-09 01:30N 27°55' W 082°27'0 0.6
2018-May-09 01:01N 27°55' W 082°27'2 4.1
2018-May-09 00:31N 27°53' W 082°27'2 3.5
2018-May-09 00:01N 27°54' W 082°26'2 3.0
2018-May-08 23:30N 27°56' W 082°26'0 0.0
2018-May-08 22:59N 27°56' W 082°26'0 0.0
2018-May-08 22:30N 27°56' W 082°26'0 0.0
2018-May-08 22:00N 27°56' W 082°26'0 0.0
2018-May-08 21:30N 27°56' W 082°26'0 0.0
2018-May-08 21:00N 27°56' W 082°26'0 0.0
2018-May-08 20:27N 27°56' W 082°26'0 0.0
2018-May-08 20:00N 27°56' W 082°26'0 0.0
2018-May-08 19:30N 27°56' W 082°26'0 0.0
2018-May-08 19:00N 27°56' W 082°26'0 0.0
2018-May-08 18:30N 27°56' W 082°26'0 0.0
2018-May-08 18:00N 27°56' W 082°26'0 0.0
2018-May-08 17:30N 27°56' W 082°26'0 0.0
2018-May-08 17:00N 27°56' W 082°26'0 0.0
2018-May-08 16:30N 27°56' W 082°26'0 0.3
2018-May-08 16:00N 27°56' W 082°26'1 1.6
2018-May-08 15:31N 27°56' W 082°27'1 1.4
2018-May-08 15:01N 27°57' W 082°27'0 0.2
2018-May-08 14:30N 27°57' W 082°27'2 3.7
2018-May-08 14:00N 27°55' W 082°27'0 0.2
2018-May-08 13:30N 27°55' W 082°27'1 1.9
2018-May-08 13:01N 27°55' W 082°26'1 2.3
2018-May-08 12:30N 27°56' W 082°26'510.3
2018-May-08 12:00N 27°51' W 082°27'5 9.9
2018-May-08 11:31N 27°47' W 082°31'4 7.9
2018-May-08 11:00N 27°50' W 082°34'2 4.3
2018-May-08 10:30N 27°52' W 082°33'0 0.2
2018-May-08 09:57N 27°52' W 082°33'0 0.4
2018-May-08 09:30N 27°52' W 082°33'0 0.0
2018-May-08 09:00N 27°52' W 082°33'0 0.0
2018-May-08 08:30N 27°52' W 082°33'0 0.0
2018-May-08 08:00N 27°52' W 082°33'0 0.0
2018-May-08 07:30N 27°52' W 082°33'0 0.0
2018-May-08 07:00N 27°52' W 082°33'0 0.0
2018-May-08 06:30N 27°52' W 082°33'0 0.0
2018-May-08 06:00N 27°52' W 082°33'0 0.0
2018-May-08 05:30N 27°52' W 082°33'0 0.0
2018-May-08 05:00N 27°52' W 082°33'0 0.0
2018-May-08 04:30N 27°52' W 082°33'0 0.0
2018-May-08 04:00N 27°52' W 082°33'0 0.0
2018-May-08 03:30N 27°52' W 082°33'0 0.0
2018-May-08 03:00N 27°52' W 082°33'0 0.0
2018-May-08 02:30N 27°52' W 082°33'0 0.0
2018-May-08 02:00N 27°52' W 082°33'0 0.0
2018-May-08 01:30N 27°52' W 082°33'0 0.0
2018-May-08 01:00N 27°52' W 082°33'0 0.3
2018-May-08 00:30N 27°52' W 082°33'1 1.2
2018-May-08 00:01N 27°51' W 082°33'3 6.1
2018-May-07 23:31N 27°48' W 082°34'510.3
2018-May-07 23:01N 27°48' W 082°29'611.1
2018-May-07 22:31N 27°53' W 082°26'2 3.2
2018-May-07 22:00N 27°55' W 082°27'0 0.0
2018-May-07 21:30N 27°55' W 082°27'1 1.3
2018-May-07 21:01N 27°54' W 082°26'5 9.9
2018-May-07 20:30N 27°49' W 082°27'510.3
2018-May-07 20:00N 27°47' W 082°32'4 7.8
2018-May-07 19:30N 27°51' W 082°34'1 2.1
2018-May-07 19:00N 27°52' W 082°33'0 0.7
2018-May-07 18:31N 27°52' W 082°33'5 9.6
2018-May-07 18:01N 27°47' W 082°35'5 9.0
2018-May-07 17:28N 27°42' W 082°37'5 0.9
2018-May-07 11:34N 27°38' W 082°34'0 2.1
2018-May-07 11:30N 27°38' W 082°34'0 0.8
2018-May-07 11:00N 27°38' W 082°34'0 0.0
2018-May-06 23:12N 27°38' W 082°34'0 0.0
2018-May-06 20:31N 27°38' W 082°34'410.1
2018-May-06 20:07N 27°41' W 082°37'110.2
2018-May-06 20:00N 27°42' W 082°37'5 9.8
2018-May-06 19:30N 27°47' W 082°36'5 9.7
2018-May-06 19:01N 27°51' W 082°33'1 1.1
2018-May-06 18:30N 27°52' W 082°33'0 0.1
2018-May-06 18:00N 27°52' W 082°33'1 2.2
2018-May-06 17:31N 27°51' W 082°34'1 2.6
2018-May-06 17:00N 27°50' W 082°34'4 7.5
2018-May-06 16:31N 27°46' W 082°36'6 1.4
2018-May-06 12:03N 27°40' W 082°36'1 7.6
2018-May-06 11:58N 27°41' W 082°35'4 8.9
2018-May-06 11:31N 27°43' W 082°32'5 9.3
2018-May-06 11:00N 27°48' W 082°30'5 9.6
2018-May-06 10:30N 27°48' W 082°24'0 0.1
2018-May-06 10:00N 27°48' W 082°24'0 0.0
2018-May-06 09:30N 27°48' W 082°24'0 0.0
2018-May-06 09:00N 27°48' W 082°24'0 0.0
2018-May-06 08:30N 27°48' W 082°24'0 0.0
2018-May-06 08:00N 27°48' W 082°24'0 0.0
2018-May-06 07:30N 27°48' W 082°24'0 0.0
2018-May-06 07:00N 27°48' W 082°24'0 0.0
2018-May-06 06:30N 27°48' W 082°24'0 0.0
2018-May-06 06:00N 27°48' W 082°24'0 0.0
2018-May-06 05:30N 27°48' W 082°24'0 0.0
2018-May-06 05:00N 27°48' W 082°24'0 0.0
2018-May-06 04:30N 27°48' W 082°24'0 0.0
2018-May-06 04:00N 27°48' W 082°24'0 0.0
2018-May-06 03:30N 27°48' W 082°24'0 0.0
2018-May-06 03:00N 27°48' W 082°24'0 0.0
2018-May-06 02:30N 27°48' W 082°24'0 0.0
2018-May-06 02:00N 27°48' W 082°24'0 0.0
2018-May-06 01:30N 27°48' W 082°24'0 0.0
2018-May-06 01:00N 27°48' W 082°24'0 0.0
2018-May-06 00:30N 27°48' W 082°24'0 0.0
2018-May-06 00:00N 27°48' W 082°24'0 0.0
2018-May-05 23:30N 27°48' W 082°24'0 0.0
2018-May-05 23:00N 27°48' W 082°24'0 0.0
2018-May-05 22:30N 27°48' W 082°24'0 0.0
2018-May-05 22:00N 27°48' W 082°24'0 0.0
2018-May-05 21:30N 27°48' W 082°24'0 0.0
2018-May-05 21:00N 27°48' W 082°24'0 0.0
2018-May-05 20:30N 27°48' W 082°24'0 0.0
2018-May-05 20:00N 27°48' W 082°24'0 0.0
2018-May-05 19:30N 27°48' W 082°24'0 0.0
2018-May-05 19:00N 27°48' W 082°24'0 0.0
2018-May-05 18:30N 27°48' W 082°24'0 0.0
2018-May-05 18:00N 27°48' W 082°24'0 0.0
2018-May-05 17:30N 27°48' W 082°24'0 0.0
2018-May-05 17:00N 27°48' W 082°24'0 0.0
2018-May-05 16:30N 27°48' W 082°24'0 0.0
2018-May-05 16:00N 27°48' W 082°24'0 0.0
2018-May-05 15:30N 27°48' W 082°24'1 2.9
2018-May-05 15:00N 27°49' W 082°26'510.0
2018-May-05 14:30N 27°47' W 082°31'  
Track history (hours):
 
Tides and Currents Weather Stations Pressure Air Temp Water Temp Dewpoint Dewpoint Depression Visibility Wind Speed Wind Dir Waves Ship Positions

Independent

Last reported at 2018-May-15 14:20 UTC. Time now 2018-Jun-21 16:23 UTC.
Position N 27°57' W 082°27'.
Warning: this ship's position is 37 days out of date.

Length 28 m; draft 5 m.

Type: Tug. MMSI: 367777460.

Date/timePositionNaut miles runAvg speedWind from/ knotsBaromVisibWave heightAir tempDewpointWater temp
2018-May-15 14:20N 27°57' W 082°27'0 0.0
2018-May-15 14:00N 27°57' W 082°27'0 0.0
2018-May-15 13:30N 27°57' W 082°27'0 0.0
2018-May-15 13:00N 27°57' W 082°27'1 2.9
2018-May-15 12:31N 27°55' W 082°27'1 1.0
2018-May-15 12:00N 27°55' W 082°27'0 0.0
2018-May-15 11:30N 27°55' W 082°27'2 3.2
2018-May-15 11:01N 27°57' W 082°27'0 0.6
2018-May-15 10:30N 27°57' W 082°27'1 2.0
2018-May-15 10:01N 27°56' W 082°26'0 0.1
2018-May-15 09:30N 27°56' W 082°26'0 0.0
2018-May-15 09:00N 27°56' W 082°26'0 0.0
2018-May-15 08:30N 27°56' W 082°26'0 0.0
2018-May-15 08:00N 27°56' W 082°26'0 0.0
2018-May-15 07:30N 27°56' W 082°26'0 0.0
2018-May-15 07:00N 27°56' W 082°26'0 0.0
2018-May-15 06:30N 27°56' W 082°26'0 0.0
2018-May-15 06:00N 27°56' W 082°26'0 0.0
2018-May-15 05:30N 27°56' W 082°26'0 0.0
2018-May-15 05:00N 27°56' W 082°26'0 0.0
2018-May-15 04:30N 27°56' W 082°26'0 0.0
2018-May-15 04:00N 27°56' W 082°26'0 0.0
2018-May-15 03:30N 27°56' W 082°26'0 0.0
2018-May-15 03:00N 27°56' W 082°26'0 0.0
2018-May-15 02:31N 27°56' W 082°26'2 3.7
2018-May-15 02:00N 27°54' W 082°25'0 0.1
2018-May-15 01:30N 27°54' W 082°25'1 1.2
2018-May-15 01:00N 27°54' W 082°26'1 2.7
2018-May-15 00:31N 27°53' W 082°27'510.9
2018-May-15 00:01N 27°48' W 082°29'611.2
2018-May-14 23:30N 27°43' W 082°32'5 8.0
2018-May-14 22:51N 27°38' W 082°34'0 1.3
2018-May-14 22:30N 27°38' W 082°34'0 0.0
2018-May-14 22:00N 27°38' W 082°34'0 0.8
2018-May-14 21:29N 27°38' W 082°34'3 6.9
2018-May-14 21:00N 27°41' W 082°34'510.6
2018-May-14 20:30N 27°46' W 082°31'5 9.7
2018-May-14 20:01N 27°49' W 082°27'510.3
2018-May-14 19:30N 27°54' W 082°26'2 4.0
2018-May-14 19:00N 27°56' W 082°26'0 0.0
2018-May-14 18:30N 27°56' W 082°26'0 0.0
2018-May-14 18:00N 27°56' W 082°26'0 0.0
2018-May-14 17:30N 27°56' W 082°26'0 0.0
2018-May-14 17:00N 27°56' W 082°26'2 3.3
2018-May-14 16:30N 27°54' W 082°26'1 2.0
2018-May-14 16:00N 27°55' W 082°27'0 0.0
2018-May-14 15:30N 27°55' W 082°27'1 1.3
2018-May-14 15:00N 27°55' W 082°26'2 2.6
2018-May-14 14:25N 27°56' W 082°26'0 0.0
2018-May-14 13:59N 27°56' W 082°26'0 0.0
2018-May-14 13:30N 27°56' W 082°26'0 0.0
2018-May-14 13:00N 27°56' W 082°26'0 0.0
2018-May-14 12:30N 27°56' W 082°26'0 0.0
2018-May-14 12:00N 27°56' W 082°26'0 0.0
2018-May-14 11:30N 27°56' W 082°26'0 0.0
2018-May-14 11:00N 27°56' W 082°26'0 0.0
2018-May-14 10:30N 27°56' W 082°26'0 0.0
2018-May-14 10:00N 27°56' W 082°26'0 0.0
2018-May-14 09:30N 27°56' W 082°26'0 0.0
2018-May-14 09:00N 27°56' W 082°26'0 0.0
2018-May-14 08:30N 27°56' W 082°26'0 0.0
2018-May-14 08:00N 27°56' W 082°26'0 0.0
2018-May-14 07:30N 27°56' W 082°26'0 0.0
2018-May-14 07:00N 27°56' W 082°26'0 0.0
2018-May-14 06:30N 27°56' W 082°26'0 0.0
2018-May-14 06:00N 27°56' W 082°26'0 0.0
2018-May-14 05:30N 27°56' W 082°26'2 3.3
2018-May-14 05:00N 27°54' W 082°26'2 4.7
2018-May-14 04:30N 27°57' W 082°27'0 0.9
2018-May-14 04:00N 27°56' W 082°27'2 4.1
2018-May-14 03:30N 27°54' W 082°26'1 2.6
2018-May-14 03:01N 27°53' W 082°27'2 3.0
2018-May-14 02:30N 27°55' W 082°26'0 0.0
2018-May-14 02:00N 27°55' W 082°26'0 0.0
2018-May-14 01:30N 27°55' W 082°26'0 0.0
2018-May-14 01:00N 27°55' W 082°26'1 2.1
2018-May-14 00:30N 27°55' W 082°27'1 2.7
2018-May-14 00:00N 27°57' W 082°27'4 7.3
2018-May-13 23:31N 27°53' W 082°26'510.8
2018-May-13 23:00N 27°48' W 082°28'510.4
2018-May-13 22:30N 27°44' W 082°32'6 7.7
2018-May-13 21:43N 27°38' W 082°34'0 0.4
2018-May-13 21:10N 27°38' W 082°34'1 3.7
2018-May-13 20:54N 27°39' W 082°35'2 4.7
2018-May-13 20:28N 27°39' W 082°37'1 1.7
2018-May-13 19:40N 27°40' W 082°36'212.8
2018-May-13 19:30N 27°41' W 082°34'612.2
2018-May-13 19:01N 27°47' W 082°31'4 8.8
2018-May-13 18:30N 27°51' W 082°34'1 2.6
2018-May-13 18:01N 27°52' W 082°33'0 0.1
2018-May-13 17:31N 27°52' W 082°33'4 8.7
2018-May-13 17:00N 27°47' W 082°34'5 9.8
2018-May-13 16:30N 27°48' W 082°29'4 8.9
2018-May-13 16:00N 27°52' W 082°27'4 8.0
2018-May-13 15:30N 27°56' W 082°26'0 0.0
2018-May-13 15:00N 27°56' W 082°26'0 0.0
2018-May-13 14:30N 27°56' W 082°26'0 0.0
2018-May-13 14:00N 27°56' W 082°26'0 0.0
2018-May-13 13:30N 27°56' W 082°26'0 0.0
2018-May-13 13:00N 27°56' W 082°26'0 0.0
2018-May-13 12:30N 27°56' W 082°26'0 0.0
2018-May-13 12:00N 27°56' W 082°26'0 0.0
2018-May-13 11:30N 27°56' W 082°26'0 0.0
2018-May-13 11:00N 27°56' W 082°26'0 0.0
2018-May-13 10:30N 27°56' W 082°26'0 0.0
2018-May-13 10:00N 27°56' W 082°26'0 0.0
2018-May-13 09:30N 27°56' W 082°26'0 0.0
2018-May-13 09:00N 27°56' W 082°26'0 0.0
2018-May-13 08:30N 27°56' W 082°26'0 0.0
2018-May-13 08:00N 27°56' W 082°26'0 0.0
2018-May-13 07:30N 27°56' W 082°26'0 0.0
2018-May-13 07:00N 27°56' W 082°26'1 2.5
2018-May-13 06:30N 27°55' W 082°27'0 0.2
2018-May-13 06:00N 27°55' W 082°27'0 0.0
2018-May-13 05:31N 27°55' W 082°27'2 3.1
2018-May-13 05:00N 27°53' W 082°26'1 2.1
2018-May-13 04:28N 27°55' W 082°26'0 0.0
2018-May-13 04:00N 27°55' W 082°26'0 0.0
2018-May-13 03:30N 27°55' W 082°26'0 0.0
2018-May-13 03:00N 27°55' W 082°26'0 0.9
2018-May-13 02:30N 27°54' W 082°26'510.2
2018-May-13 02:01N 27°49' W 082°27'5 9.8
2018-May-13 01:31N 27°47' W 082°32'4 7.1
2018-May-13 01:00N 27°50' W 082°34'2 3.3
2018-May-13 00:30N 27°52' W 082°33'0 0.0
2018-May-13 00:00N 27°52' W 082°33'0 0.0
2018-May-12 23:30N 27°52' W 082°33'0 0.0
2018-May-12 23:00N 27°52' W 082°33'0 0.0
2018-May-12 22:30N 27°52' W 082°33'0 0.0
2018-May-12 22:00N 27°52' W 082°33'0 0.0
2018-May-12 21:30N 27°52' W 082°33'0 0.0
2018-May-12 21:00N 27°52' W 082°33'0 0.0
2018-May-12 20:30N 27°52' W 082°33'0 0.0
2018-May-12 20:00N 27°52' W 082°33'0 0.0
2018-May-12 19:30N 27°52' W 082°33'0 0.0
2018-May-12 19:00N 27°52' W 082°33'0 0.3
2018-May-12 18:30N 27°52' W 082°33'0 0.8
2018-May-12 18:00N 27°51' W 082°33'3 5.6
2018-May-12 17:30N 27°49' W 082°34'4 8.7
2018-May-12 17:01N 27°48' W 082°30'510.5
2018-May-12 16:30N 27°52' W 082°27'3 5.8
2018-May-12 16:00N 27°55' W 082°27'0 0.1
2018-May-12 15:30N 27°55' W 082°27'0 0.0
2018-May-12 15:00N 27°55' W 082°27'1 2.4
2018-May-12 14:30N 27°56' W 082°26'0 0.1
2018-May-12 13:59N 27°56' W 082°26'0 0.0
2018-May-12 13:30N 27°56' W 082°26'0 0.0
2018-May-12 12:59N 27°56' W 082°26'0 0.0
2018-May-12 12:30N 27°56' W 082°26'0 0.0
2018-May-12 12:00N 27°56' W 082°26'0 0.0
2018-May-12 11:30N 27°56' W 082°26'0 0.0
2018-May-12 11:00N 27°56' W 082°26'0 0.0
2018-May-12 10:30N 27°56' W 082°26'0 0.0
2018-May-12 10:00N 27°56' W 082°26'0 0.0
2018-May-12 09:30N 27°56' W 082°26'0 0.0
2018-May-12 09:00N 27°56' W 082°26'0 0.0
2018-May-12 08:28N 27°56' W 082°26'0 0.0
2018-May-12 08:00N 27°56' W 082°26'0 0.0
2018-May-12 07:30N 27°56' W 082°26'0 0.0
2018-May-12 07:00N 27°56' W 082°26'0 0.0
2018-May-12 06:30N 27°56' W 082°26'0 0.0
2018-May-12 05:59N 27°56' W 082°26'0 0.0
2018-May-12 05:30N 27°56' W 082°26'0 0.0
2018-May-12 05:00N 27°56' W 082°26'0 0.0
2018-May-12 04:28N 27°56' W 082°26'0 0.0
2018-May-12 04:00N 27°56' W 082°26'0 0.0
2018-May-12 03:30N 27°56' W 082°26'0 0.0
2018-May-12 03:00N 27°56' W 082°26'0 0.0
2018-May-12 02:30N 27°56' W 082°26'0 0.0
2018-May-12 02:00N 27°56' W 082°26'0 0.0
2018-May-12 01:29N 27°56' W 082°26'0 0.0
2018-May-12 01:00N 27°56' W 082°26'0 0.0
2018-May-12 00:30N 27°56' W 082°26'0 0.0
2018-May-12 00:00N 27°56' W 082°26'0 0.0
2018-May-11 23:30N 27°56' W 082°26'0 0.0
2018-May-11 22:59N 27°56' W 082°26'0 0.0
2018-May-11 22:30N 27°56' W 082°26'0 0.0
2018-May-11 22:00N 27°56' W 082°26'0 0.0
2018-May-11 21:30N 27°56' W 082°26'1 2.6
2018-May-11 21:01N 27°55' W 082°26'0 0.9
2018-May-11 20:30N 27°54' W 082°26'1 1.7
2018-May-11 20:00N 27°54' W 082°26'0 0.8
2018-May-11 19:30N 27°54' W 082°26'0 0.8
2018-May-11 19:00N 27°55' W 082°26'1 1.7
2018-May-11 18:31N 27°54' W 082°26'0 0.3
2018-May-11 18:00N 27°54' W 082°26'2 4.2
2018-May-11 17:29N 27°56' W 082°26'0 0.0
2018-May-11 16:58N 27°56' W 082°26'0 0.0
2018-May-11 16:30N 27°56' W 082°26'0 0.0
2018-May-11 16:00N 27°56' W 082°26'0 0.0
2018-May-11 15:30N 27°56' W 082°26'0 0.0
2018-May-11 15:00N 27°56' W 082°26'0 0.0
2018-May-11 14:29N 27°56' W 082°26'0 0.0
2018-May-11 14:00N 27°56' W 082°26'0 0.0
2018-May-11 13:30N 27°56' W 082°26'1 2.3
2018-May-11 13:00N 27°55' W 082°26'1 1.6
2018-May-11 12:30N 27°55' W 082°27'1 2.9
2018-May-11 12:01N 27°54' W 082°26'1 2.0
2018-May-11 11:30N 27°55' W 082°26'0 0.0
2018-May-11 11:00N 27°55' W 082°26'0 0.0
2018-May-11 10:30N 27°55' W 082°26'0 0.0
2018-May-11 10:00N 27°55' W 082°26'0 0.0
2018-May-11 09:30N 27°55' W 082°26'0 0.0
2018-May-11 09:00N 27°55' W 082°26'0 0.0
2018-May-11 08:30N 27°55' W 082°26'0 0.0
2018-May-11 08:00N 27°55' W 082°26'1 1.2
2018-May-11 07:30N 27°55' W 082°27'0 0.4
2018-May-11 07:01N 27°55' W 082°27'2 3.7
2018-May-11 06:30N 27°53' W 082°26'0 0.0
2018-May-11 06:00N 27°53' W 082°26'3 6.0
2018-May-11 05:30N 27°56' W 082°26'0 0.0
2018-May-11 04:58N 27°56' W 082°26'0 0.0
2018-May-11 04:30N 27°56' W 082°26'0 0.0
2018-May-11 04:00N 27°56' W 082°26'0 0.0
2018-May-11 03:30N 27°56' W 082°26'0 0.0
2018-May-11 02:59N 27°56' W 082°26'0 0.0
2018-May-11 02:30N 27°56' W 082°26'0 0.0
2018-May-11 02:00N 27°56' W 082°26'0 0.0
2018-May-11 01:30N 27°56' W 082°26'0 0.0
2018-May-11 01:00N 27°56' W 082°26'0 0.0
2018-May-11 00:30N 27°56' W 082°26'0 0.0
2018-May-11 00:00N 27°56' W 082°26'0 0.0
2018-May-10 23:30N 27°56' W 082°26'0 0.0
2018-May-10 23:00N 27°56' W 082°26'0 0.0
2018-May-10 22:30N 27°56' W 082°26'0 0.0
2018-May-10 22:00N 27°56' W 082°26'0 0.0
2018-May-10 21:30N 27°56' W 082°26'0 0.0
2018-May-10 20:59N 27°56' W 082°26'0 0.0
2018-May-10 20:30N 27°56' W 082°26'0 0.0
2018-May-10 20:00N 27°56' W 082°26'0 0.0
2018-May-10 19:30N 27°56' W 082°26'0 0.0
2018-May-10 19:00N 27°56' W 082°26'0 0.0
2018-May-10 18:30N 27°56' W 082°26'0 0.0
2018-May-10 18:00N 27°56' W 082°26'0 0.0
2018-May-10 17:30N 27°56' W 082°26'0 0.0
2018-May-10 17:00N 27°56' W 082°26'0 0.0
2018-May-10 16:29N 27°56' W 082°26'0 0.0
2018-May-10 16:00N 27°56' W 082°26'0 0.0
2018-May-10 15:30N 27°56' W 082°26'0 0.0
2018-May-10 15:00N 27°56' W 082°26'0 0.0
2018-May-10 14:30N 27°56' W 082°26'0 0.0
2018-May-10 14:00N 27°56' W 082°26'0 0.0
2018-May-10 13:30N 27°56' W 082°26'0 0.0
2018-May-10 13:00N 27°56' W 082°26'0 0.0
2018-May-10 12:29N 27°56' W 082°26'0 0.0
2018-May-10 12:00N 27°56' W 082°26'0 0.0
2018-May-10 11:30N 27°56' W 082°26'0 0.0
2018-May-10 11:00N 27°56' W 082°26'0 0.0
2018-May-10 10:30N 27°56' W 082°26'0 0.0
2018-May-10 10:00N 27°56' W 082°26'0 0.0
2018-May-10 09:30N 27°56' W 082°26'0 0.0
2018-May-10 09:00N 27°56' W 082°26'0 0.0
2018-May-10 08:29N 27°56' W 082°26'0 0.0
2018-May-10 07:59N 27°56' W 082°26'0 0.0
2018-May-10 07:30N 27°56' W 082°26'0 0.0
2018-May-10 07:00N 27°56' W 082°26'1 2.2
2018-May-10 06:30N 27°55' W 082°25'0 0.3
2018-May-10 06:01N 27°55' W 082°25'0 0.7
2018-May-10 05:31N 27°55' W 082°26'2 3.7
2018-May-10 05:01N 27°53' W 082°26'0 1.0
2018-May-10 04:31N 27°53' W 082°26'1 2.9
2018-May-10 04:00N 27°55' W 082°26'0 0.0
2018-May-10 03:31N 27°55' W 082°26'2 3.8
2018-May-10 03:00N 27°56' W 082°27'1 1.4
2018-May-10 02:31N 27°57' W 082°27'0 0.3
2018-May-10 02:00N 27°57' W 082°27'0 0.0
2018-May-10 01:30N 27°57' W 082°27'0 0.0
2018-May-10 01:00N 27°57' W 082°27'0 0.0
2018-May-10 00:30N 27°57' W 082°27'0 0.0
2018-May-10 00:00N 27°57' W 082°27'0 0.0
2018-May-09 23:30N 27°57' W 082°27'1 2.1
2018-May-09 23:00N 27°56' W 082°27'0 0.1
2018-May-09 22:30N 27°56' W 082°27'1 1.6
2018-May-09 22:00N 27°55' W 082°27'0 0.1
2018-May-09 21:31N 27°55' W 082°27'1 1.3
2018-May-09 21:00N 27°55' W 082°26'0 0.0
2018-May-09 20:30N 27°55' W 082°26'0 0.0
2018-May-09 20:00N 27°55' W 082°26'0 0.0
2018-May-09 19:30N 27°55' W 082°26'0 0.0
2018-May-09 18:59N 27°55' W 082°26'1 2.3
2018-May-09 18:31N 27°53' W 082°26'5 9.4
2018-May-09 18:00N 27°49' W 082°27'4 9.0
2018-May-09 17:30N 27°46' W 082°31'5 9.5
2018-May-09 17:01N 27°42' W 082°33'4 5.9
2018-May-09 16:21N 27°38' W 082°34'0 0.1
2018-May-09 15:41N 27°38' W 082°34'0 0.8
2018-May-09 15:27N 27°38' W 082°34'3 4.6
2018-May-09 14:49N 27°39' W 082°37'2 1.2
2018-May-09 13:30N 27°40' W 082°36'4 9.1
2018-May-09 13:01N 27°43' W 082°32'4 7.8
2018-May-09 12:30N 27°47' W 082°33'4 7.1
2018-May-09 12:01N 27°51' W 082°34'1 2.7
2018-May-09 11:30N 27°52' W 082°33'0 0.0
2018-May-09 11:00N 27°52' W 082°33'0 0.0
2018-May-09 10:30N 27°52' W 082°33'0 0.2
2018-May-09 10:00N 27°52' W 082°33'0 0.0
2018-May-09 09:30N 27°52' W 082°33'3 6.1
2018-May-09 09:00N 27°49' W 082°34'4 7.8
2018-May-09 08:30N 27°47' W 082°30'5 9.3
2018-May-09 08:01N 27°51' W 082°27'5 9.7
2018-May-09 07:31N 27°56' W 082°26'1 1.0
2018-May-09 07:00N 27°56' W 082°26'0 0.0
2018-May-09 06:30N 27°56' W 082°26'0 0.0
2018-May-09 06:00N 27°56' W 082°26'0 0.0
2018-May-09 05:30N 27°56' W 082°26'0 0.0
2018-May-09 05:00N 27°56' W 082°26'0 0.0
2018-May-09 04:29N 27°56' W 082°26'0 0.0
2018-May-09 04:00N 27°56' W 082°26'0 0.0
2018-May-09 03:30N 27°56' W 082°26'0 0.0
2018-May-09 03:00N 27°56' W 082°26'0 0.0
2018-May-09 02:30N 27°56' W 082°26'1 1.2
2018-May-09 02:00N 27°56' W 082°26'1 1.7
2018-May-09 01:30N 27°55' W 082°27'0 0.6
2018-May-09 01:01N 27°55' W 082°27'2 4.1
2018-May-09 00:31N 27°53' W 082°27'2 3.5
2018-May-09 00:01N 27°54' W 082°26'2 3.0
2018-May-08 23:30N 27°56' W 082°26'0 0.0
2018-May-08 22:59N 27°56' W 082°26'0 0.0
2018-May-08 22:30N 27°56' W 082°26'0 0.0
2018-May-08 22:00N 27°56' W 082°26'0 0.0
2018-May-08 21:30N 27°56' W 082°26'0 0.0
2018-May-08 21:00N 27°56' W 082°26'0 0.0
2018-May-08 20:27N 27°56' W 082°26'0 0.0
2018-May-08 20:00N 27°56' W 082°26'0 0.0
2018-May-08 19:30N 27°56' W 082°26'0 0.0
2018-May-08 19:00N 27°56' W 082°26'0 0.0
2018-May-08 18:30N 27°56' W 082°26'0 0.0
2018-May-08 18:00N 27°56' W 082°26'0 0.0
2018-May-08 17:30N 27°56' W 082°26'0 0.0
2018-May-08 17:00N 27°56' W 082°26'0 0.0
2018-May-08 16:30N 27°56' W 082°26'0 0.3
2018-May-08 16:00N 27°56' W 082°26'1 1.6
2018-May-08 15:31N 27°56' W 082°27'1 1.4
2018-May-08 15:01N 27°57' W 082°27'0 0.2
2018-May-08 14:30N 27°57' W 082°27'2 3.7
2018-May-08 14:00N 27°55' W 082°27'0 0.2
2018-May-08 13:30N 27°55' W 082°27'1 1.9
2018-May-08 13:01N 27°55' W 082°26'1 2.3
2018-May-08 12:30N 27°56' W 082°26'510.3
2018-May-08 12:00N 27°51' W 082°27'5 9.9
2018-May-08 11:31N 27°47' W 082°31'4 7.9
2018-May-08 11:00N 27°50' W 082°34'2 4.3
2018-May-08 10:30N 27°52' W 082°33'0 0.2
2018-May-08 09:57N 27°52' W 082°33'0 0.4
2018-May-08 09:30N 27°52' W 082°33'0 0.0
2018-May-08 09:00N 27°52' W 082°33'0 0.0
2018-May-08 08:30N 27°52' W 082°33'0 0.0
2018-May-08 08:00N 27°52' W 082°33'0 0.0
2018-May-08 07:30N 27°52' W 082°33'0 0.0
2018-May-08 07:00N 27°52' W 082°33'0 0.0
2018-May-08 06:30N 27°52' W 082°33'0 0.0
2018-May-08 06:00N 27°52' W 082°33'0 0.0
2018-May-08 05:30N 27°52' W 082°33'0 0.0
2018-May-08 05:00N 27°52' W 082°33'0 0.0
2018-May-08 04:30N 27°52' W 082°33'0 0.0
2018-May-08 04:00N 27°52' W 082°33'0 0.0
2018-May-08 03:30N 27°52' W 082°33'0 0.0
2018-May-08 03:00N 27°52' W 082°33'0 0.0
2018-May-08 02:30N 27°52' W 082°33'0 0.0
2018-May-08 02:00N 27°52' W 082°33'0 0.0
2018-May-08 01:30N 27°52' W 082°33'0 0.0
2018-May-08 01:00N 27°52' W 082°33'0 0.3
2018-May-08 00:30N 27°52' W 082°33'1 1.2
2018-May-08 00:01N 27°51' W 082°33'3 6.1
2018-May-07 23:31N 27°48' W 082°34'510.3
2018-May-07 23:01N 27°48' W 082°29'611.1
2018-May-07 22:31N 27°53' W 082°26'2 3.2
2018-May-07 22:00N 27°55' W 082°27'0 0.0
2018-May-07 21:30N 27°55' W 082°27'1 1.3
2018-May-07 21:01N 27°54' W 082°26'5 9.9
2018-May-07 20:30N 27°49' W 082°27'510.3
2018-May-07 20:00N 27°47' W 082°32'4 7.8
2018-May-07 19:30N 27°51' W 082°34'1 2.1
2018-May-07 19:00N 27°52' W 082°33'0 0.7
2018-May-07 18:31N 27°52' W 082°33'5 9.6
2018-May-07 18:01N 27°47' W 082°35'5 9.0
2018-May-07 17:28N 27°42' W 082°37'5 0.9
2018-May-07 11:34N 27°38' W 082°34'0 2.1
2018-May-07 11:30N 27°38' W 082°34'0 0.8
2018-May-07 11:00N 27°38' W 082°34'0 0.0
2018-May-06 23:12N 27°38' W 082°34'0 0.0
2018-May-06 20:31N 27°38' W 082°34'410.1
2018-May-06 20:07N 27°41' W 082°37'110.2
2018-May-06 20:00N 27°42' W 082°37'5 9.8
2018-May-06 19:30N 27°47' W 082°36'5 9.7
2018-May-06 19:01N 27°51' W 082°33'1 1.1
2018-May-06 18:30N 27°52' W 082°33'0 0.1
2018-May-06 18:00N 27°52' W 082°33'1 2.2
2018-May-06 17:31N 27°51' W 082°34'1 2.6
2018-May-06 17:00N 27°50' W 082°34'4 7.5
2018-May-06 16:31N 27°46' W 082°36'6 1.4
2018-May-06 12:03N 27°40' W 082°36'1 7.6
2018-May-06 11:58N 27°41' W 082°35'4 8.9
2018-May-06 11:31N 27°43' W 082°32'5 9.3
2018-May-06 11:00N 27°48' W 082°30'5 9.6
2018-May-06 10:30N 27°48' W 082°24'0 0.1
2018-May-06 10:00N 27°48' W 082°24'0 0.0
2018-May-06 09:30N 27°48' W 082°24'0 0.0
2018-May-06 09:00N 27°48' W 082°24'0 0.0
2018-May-06 08:30N 27°48' W 082°24'0 0.0
2018-May-06 08:00N 27°48' W 082°24'0 0.0
2018-May-06 07:30N 27°48' W 082°24'0 0.0
2018-May-06 07:00N 27°48' W 082°24'0 0.0
2018-May-06 06:30N 27°48' W 082°24'0 0.0
2018-May-06 06:00N 27°48' W 082°24'0 0.0
2018-May-06 05:30N 27°48' W 082°24'0 0.0
2018-May-06 05:00N 27°48' W 082°24'0 0.0
2018-May-06 04:30N 27°48' W 082°24'0 0.0
2018-May-06 04:00N 27°48' W 082°24'0 0.0
2018-May-06 03:30N 27°48' W 082°24'0 0.0
2018-May-06 03:00N 27°48' W 082°24'0 0.0
2018-May-06 02:30N 27°48' W 082°24'0 0.0
2018-May-06 02:00N 27°48' W 082°24'0 0.0
2018-May-06 01:30N 27°48' W 082°24'0 0.0
2018-May-06 01:00N 27°48' W 082°24'0 0.0
2018-May-06 00:30N 27°48' W 082°24'0 0.0
2018-May-06 00:00N 27°48' W 082°24'0 0.0
2018-May-05 23:30N 27°48' W 082°24'0 0.0
2018-May-05 23:00N 27°48' W 082°24'0 0.0
2018-May-05 22:30N 27°48' W 082°24'0 0.0
2018-May-05 22:00N 27°48' W 082°24'0 0.0
2018-May-05 21:30N 27°48' W 082°24'0 0.0
2018-May-05 21:00N 27°48' W 082°24'0 0.0
2018-May-05 20:30N 27°48' W 082°24'0 0.0
2018-May-05 20:00N 27°48' W 082°24'0 0.0
2018-May-05 19:30N 27°48' W 082°24'0 0.0
2018-May-05 19:00N 27°48' W 082°24'0 0.0
2018-May-05 18:30N 27°48' W 082°24'0 0.0
2018-May-05 18:00N 27°48' W 082°24'0 0.0
2018-May-05 17:30N 27°48' W 082°24'0 0.0
2018-May-05 17:00N 27°48' W 082°24'0 0.0
2018-May-05 16:30N 27°48' W 082°24'0 0.0
2018-May-05 16:00N 27°48' W 082°24'0 0.0
2018-May-05 15:30N 27°48' W 082°24'1 2.9
2018-May-05 15:00N 27°49' W 082°26'510.0
2018-May-05 14:30N 27°47' W 082°31'  

Dump ship's entire track history